Time;durP1;ratioP1;P1;durP2;ratioP2;P2;SDS_P1;SDS_P2;PMS_P1;PMS_P2;Temp;Humidity;BMP_temperature;BMP_pressure;BME280_temperature;BME280_humidity;BME280_pressure;Samples;Min_cycle;Max_cycle;Signal;HPM_P1;HPM_P2
2022/09/18 00:00:47;;;;;;;2.25;1.85;;;;;;;10.54;100.00;99555.25;4901519;29;20032;-82
2022/09/18 00:03:14;;;;;;;2.72;1.55;;;;;;;10.64;100.00;99556.75;4904595;29;20032;-82
2022/09/18 00:05:41;;;;;;;3.22;1.63;;;;;;;10.69;100.00;99552.59;4901779;29;20043;-81
2022/09/18 00:08:07;;;;;;;2.58;1.80;;;;;;;10.59;100.00;99546.78;4917862;29;20083;-82
2022/09/18 00:10:39;;;;;;;3.47;1.80;;;;;;;10.64;100.00;99556.75;4887491;29;20037;-79
2022/09/18 00:13:05;;;;;;;2.25;1.73;;;;;;;10.63;100.00;99548.09;4907083;29;20036;-82
2022/09/18 00:15:31;;;;;;;1.90;1.80;;;;;;;10.60;100.00;99545.00;4904837;29;20040;-79
2022/09/18 00:18:00;;;;;;;3.47;1.60;;;;;;;10.54;100.00;99539.50;4899350;29;20372;-80
2022/09/18 00:20:26;;;;;;;3.53;1.70;;;;;;;10.52;100.00;99545.91;4888753;29;20490;-83
2022/09/18 00:22:52;;;;;;;3.38;1.90;;;;;;;10.37;100.00;99551.13;4913927;29;20059;-82
2022/09/18 00:25:17;;;;;;;2.45;1.92;;;;;;;10.58;100.00;99539.91;4887130;29;20029;-80
2022/09/18 00:27:43;;;;;;;3.05;1.40;;;;;;;10.41;100.00;99545.34;4866302;29;20037;-81
2022/09/18 00:30:09;;;;;;;3.47;1.50;;;;;;;10.30;100.00;99545.78;4885077;29;20725;-81
2022/09/18 00:32:35;;;;;;;3.28;1.80;;;;;;;10.58;100.00;99539.91;4872803;29;20124;-81
2022/09/18 00:35:00;;;;;;;2.55;1.50;;;;;;;10.56;100.00;99542.75;4887565;29;20504;-82
2022/09/18 00:37:27;;;;;;;1.75;1.65;;;;;;;10.62;100.00;99551.72;4869772;29;20120;-82
2022/09/18 00:39:53;;;;;;;3.53;1.40;;;;;;;10.53;100.00;99537.03;4884744;29;20037;-81
2022/09/18 00:42:19;;;;;;;1.88;1.60;;;;;;;10.50;100.00;99555.78;4870356;29;20101;-82
2022/09/18 00:44:46;;;;;;;5.88;1.50;;;;;;;10.31;100.00;99529.03;4885037;29;20088;-82
2022/09/18 00:47:21;;;;;;;1.60;1.40;;;;;;;10.31;100.00;99544.78;4890214;29;20036;-81
2022/09/18 00:50:13;;;;;;;1.48;1.38;;;;;;;10.24;100.00;99547.31;4883591;29;20021;-82
2022/09/18 00:52:55;;;;;;;4.80;1.48;;;;;;;10.27;100.00;99543.53;4869744;29;20029;-82
2022/09/18 00:55:38;;;;;;;1.60;1.50;;;;;;;10.12;100.00;99538.25;4880925;29;20044;-82
2022/09/18 00:58:04;;;;;;;1.50;1.40;;;;;;;10.15;100.00;99536.06;4885173;29;20055;-83
2022/09/18 01:00:31;;;;;;;4.40;1.50;;;;;;;10.26;100.00;99520.91;4887536;29;20399;-83
2022/09/18 01:03:00;;;;;;;1.75;1.45;;;;;;;10.27;100.00;99546.94;4887495;29;20033;-83
2022/09/18 01:05:51;;;;;;;2.85;1.75;;;;;;;10.03;100.00;99540.16;4871307;29;20063;-82
2022/09/18 01:08:46;;;;;;;1.63;1.40;;;;;;;10.05;100.00;99543.41;4878425;29;20049;-83
2022/09/18 01:11:54;;;;;;;3.08;1.40;;;;;;;10.00;100.00;99549.19;4883592;29;20028;-82
2022/09/18 01:14:38;;;;;;;4.78;1.60;;;;;;;9.85;100.00;99536.03;4865696;29;20123;-82
2022/09/18 01:17:08;;;;;;;1.92;1.40;;;;;;;9.83;100.00;99548.53;4900743;29;20033;-81
2022/09/18 01:19:51;;;;;;;1.50;1.40;;;;;;;9.79;100.00;99521.00;4885835;29;20033;-82
2022/09/18 01:22:41;;;;;;;1.52;1.42;;;;;;;9.77;100.00;99530.84;4884565;29;20064;-81
2022/09/18 01:25:09;;;;;;;2.78;1.42;;;;;;;9.96;100.00;99547.09;4885314;29;20021;-82
2022/09/18 01:27:56;;;;;;;2.35;1.40;;;;;;;9.82;100.00;99536.38;4868649;29;20084;-82
2022/09/18 01:30:22;;;;;;;2.53;1.30;;;;;;;9.71;100.00;99534.19;4891798;29;20037;-81
2022/09/18 01:32:58;;;;;;;2.60;1.40;;;;;;;9.63;100.00;99548.19;4867214;29;20055;-81
2022/09/18 01:35:30;;;;;;;1.90;1.40;;;;;;;9.62;100.00;99532.59;4885126;29;20043;-81
2022/09/18 01:38:08;;;;;;;1.70;1.38;;;;;;;9.77;100.00;99528.22;4890771;29;20494;-83
2022/09/18 01:40:40;;;;;;;4.00;1.30;;;;;;;9.82;100.00;99528.50;4870934;29;20032;-82
2022/09/18 01:43:09;;;;;;;2.08;1.25;;;;;;;9.72;100.00;99522.72;4885210;29;20393;-81
2022/09/18 01:45:42;;;;;;;2.50;1.20;;;;;;;9.76;100.00;99520.56;4885253;29;20033;-81
2022/09/18 01:48:16;;;;;;;3.47;1.40;;;;;;;9.85;100.00;99519.47;4865960;29;20402;-82
2022/09/18 01:50:49;;;;;;;1.42;1.30;;;;;;;9.83;100.00;99522.31;4861930;29;20060;-81
2022/09/18 01:53:29;;;;;;;1.30;1.20;;;;;;;9.79;100.00;99521.00;4867011;29;20487;-82
2022/09/18 01:56:08;;;;;;;2.47;1.35;;;;;;;9.72;100.00;99520.09;4888057;29;20037;-82
2022/09/18 01:58:36;;;;;;;3.83;1.40;;;;;;;9.65;100.00;99521.81;4889528;29;20033;-82
2022/09/18 02:01:07;;;;;;;2.05;1.30;;;;;;;9.62;100.00;99522.13;4892315;29;20448;-81
2022/09/18 02:03:46;;;;;;;1.38;1.13;;;;;;;9.62;100.00;99509.84;4905221;29;20064;-81
2022/09/18 02:06:25;;;;;;;2.47;1.30;;;;;;;9.63;100.00;99513.28;4888860;29;20028;-82
2022/09/18 02:08:54;;;;;;;2.97;1.42;;;;;;;9.74;100.00;99507.63;4890237;29;20028;-81
2022/09/18 02:11:21;;;;;;;1.50;1.20;;;;;;;9.66;100.00;99511.13;4890091;29;20080;-81
2022/09/18 02:13:56;;;;;;;4.78;1.10;;;;;;;9.72;100.00;99504.38;4888239;29;20044;-81
2022/09/18 02:16:30;;;;;;;2.10;1.30;;;;;;;9.82;100.00;99502.28;4892323;29;20032;-83
2022/09/18 02:19:04;;;;;;;1.10;1.10;;;;;;;9.75;100.00;99493.50;4887214;29;20040;-81
2022/09/18 02:21:31;;;;;;;2.58;1.40;;;;;;;9.61;100.00;99497.75;4883915;29;20032;-82
2022/09/18 02:24:03;;;;;;;1.30;1.15;;;;;;;9.63;100.00;99495.75;4888742;29;20046;-81
2022/09/18 02:26:31;;;;;;;1.30;1.20;;;;;;;9.60;100.00;99485.63;4888907;29;20028;-81
2022/09/18 02:28:58;;;;;;;2.70;1.20;;;;;;;9.57;100.00;99486.78;4886645;29;20032;-81
2022/09/18 02:31:23;;;;;;;3.83;1.48;;;;;;;9.52;100.00;99494.38;4888685;29;20132;-82
2022/09/18 02:33:49;;;;;;;3.60;1.17;;;;;;;9.61;100.00;99502.16;4870088;29;20064;-82
2022/09/18 02:36:20;;;;;;;1.50;1.40;;;;;;;9.54;100.00;99478.47;4891367;29;20112;-81
2022/09/18 02:39:12;;;;;;;1.55;1.40;;;;;;;9.41;100.00;99476.44;4870268;29;20045;-82
2022/09/18 02:41:58;;;;;;;1.67;1.27;;;;;;;9.56;100.00;99485.16;4889516;29;20056;-82
2022/09/18 02:44:44;;;;;;;5.97;1.42;;;;;;;9.70;100.00;99486.19;4903112;29;20044;-81
2022/09/18 02:47:21;;;;;;;2.60;1.30;;;;;;;9.74;100.00;99491.88;4880479;29;20048;-81
2022/09/18 02:50:14;;;;;;;2.28;1.25;;;;;;;9.81;100.00;99477.06;4873357;29;20052;-81
2022/09/18 02:52:48;;;;;;;1.35;1.20;;;;;;;9.79;100.00;99475.63;4875505;29;20104;-82
2022/09/18 02:55:27;;;;;;;2.38;1.27;;;;;;;9.71;100.00;99458.97;4867259;29;20039;-81
2022/09/18 02:58:04;;;;;;;2.75;1.40;;;;;;;9.84;100.00;99466.25;4869558;29;20037;-81
2022/09/18 03:00:31;;;;;;;1.20;1.10;;;;;;;9.64;100.00;99462.50;4885400;29;20039;-80
2022/09/18 03:02:58;;;;;;;1.30;1.20;;;;;;;9.55;100.00;99449.47;4888225;29;20043;-81
2022/09/18 03:05:24;;;;;;;1.98;1.20;;;;;;;9.67;100.00;99449.03;4890858;29;20390;-81
2022/09/18 03:07:51;;;;;;;2.72;1.45;;;;;;;9.63;100.00;99458.22;4871264;29;20132;-81
2022/09/18 03:10:16;;;;;;;1.40;1.30;;;;;;;9.66;100.00;99463.13;4888158;29;20043;-80
2022/09/18 03:12:42;;;;;;;1.83;1.27;;;;;;;9.68;100.00;99461.16;4887230;29;20443;-81
2022/09/18 03:15:08;;;;;;;1.30;1.20;;;;;;;9.77;100.00;99454.03;4888301;29;20521;-81
2022/09/18 03:17:34;;;;;;;3.78;1.50;;;;;;;9.84;100.00;99455.75;4875350;29;20395;-81
2022/09/18 03:20:02;;;;;;;2.17;1.10;;;;;;;9.81;100.00;99448.22;4884886;29;20024;-81
2022/09/18 03:22:28;;;;;;;1.48;1.08;;;;;;;9.92;100.00;99456.66;4886189;29;20052;-81
2022/09/18 03:24:53;;;;;;;1.13;1.02;;;;;;;10.05;100.00;99448.97;4907151;29;20036;-81
2022/09/18 03:27:19;;;;;;;1.33;1.20;;;;;;;10.00;100.00;99440.81;4892313;29;20036;-81
2022/09/18 03:29:44;;;;;;;1.25;1.15;;;;;;;9.96;100.00;99439.56;4904018;29;20090;-81
2022/09/18 03:32:10;;;;;;;2.53;1.42;;;;;;;10.03;100.00;99453.59;4906640;29;20546;-81
2022/09/18 03:34:37;;;;;;;1.88;1.23;;;;;;;10.02;100.00;99436.22;4888564;29;20040;-81
2022/09/18 03:37:02;;;;;;;1.55;1.13;;;;;;;10.07;100.00;99444.38;4903168;29;20033;-81
2022/09/18 03:39:28;;;;;;;1.27;1.17;;;;;;;9.93;100.00;99430.25;4905392;29;20545;-81
2022/09/18 03:41:54;;;;;;;4.20;1.10;;;;;;;10.05;100.00;99425.38;4904084;29;20607;-81
2022/09/18 03:44:19;;;;;;;3.47;1.40;;;;;;;10.03;100.00;99435.25;4904425;29;20391;-82
2022/09/18 03:46:45;;;;;;;1.88;1.40;;;;;;;10.11;100.00;99445.63;4907122;29;20072;-81
2022/09/18 03:49:11;;;;;;;1.58;1.10;;;;;;;10.00;100.00;99446.06;4886612;29;20040;-81
2022/09/18 03:51:37;;;;;;;1.27;1.17;;;;;;;10.17;100.00;99444.09;4908612;29;20036;-81
2022/09/18 03:54:03;;;;;;;1.73;1.10;;;;;;;10.04;100.00;99436.03;4905696;29;20390;-81
2022/09/18 03:56:28;;;;;;;1.65;1.20;;;;;;;10.09;100.00;99450.25;4904164;29;20037;-81
2022/09/18 03:58:54;;;;;;;1.83;1.23;;;;;;;10.25;100.00;99435.31;4906220;29;20032;-81
2022/09/18 04:01:20;;;;;;;1.42;1.30;;;;;;;10.30;100.00;99443.44;4905901;29;20030;-81
2022/09/18 04:03:46;;;;;;;1.73;1.20;;;;;;;10.32;100.00;99436.22;4904387;29;20043;-81
2022/09/18 04:06:11;;;;;;;1.38;1.10;;;;;;;10.15;100.00;99419.84;4903397;29;20028;-81
2022/09/18 04:08:37;;;;;;;1.33;1.00;;;;;;;10.37;100.00;99444.34;4888871;29;20045;-81
2022/09/18 04:11:04;;;;;;;1.15;1.10;;;;;;;10.43;100.00;99433.16;4904449;29;20111;-80
2022/09/18 04:13:31;;;;;;;3.08;1.33;;;;;;;10.47;100.00;99428.34;4905937;29;20076;-81
2022/09/18 04:15:57;;;;;;;1.30;1.20;;;;;;;10.45;100.00;99437.41;4901646;29;20032;-80
2022/09/18 04:18:22;;;;;;;1.90;1.48;;;;;;;10.39;100.00;99425.78;4905144;29;20486;-81
2022/09/18 04:20:49;;;;;;;1.25;1.15;;;;;;;10.18;100.00;99423.91;4901171;29;20028;-81
2022/09/18 04:23:15;;;;;;;1.10;1.10;;;;;;;10.45;100.00;99434.78;4906818;29;20402;-81
2022/09/18 04:25:41;;;;;;;1.33;1.10;;;;;;;10.34;100.00;99431.59;4906662;29;20076;-81
2022/09/18 04:28:08;;;;;;;1.17;1.08;;;;;;;10.28;100.00;99437.56;4903500;29;20442;-81
2022/09/18 04:30:33;;;;;;;3.00;1.23;;;;;;;10.36;100.00;99440.09;4904345;29;20040;-81
2022/09/18 04:32:59;;;;;;;1.65;1.10;;;;;;;10.47;100.00;99425.72;4903122;29;20037;-81
2022/09/18 04:35:27;;;;;;;2.38;1.20;;;;;;;10.57;100.00;99428.88;4904810;29;20439;-80
2022/09/18 04:37:53;;;;;;;1.42;1.17;;;;;;;10.47;100.00;99438.84;4906882;29;20120;-81
2022/09/18 04:40:19;;;;;;;1.42;1.33;;;;;;;10.52;100.00;99440.91;4903734;29;20465;-80
2022/09/18 04:42:44;;;;;;;1.45;1.20;;;;;;;10.52;100.00;99441.75;4901321;29;20376;-80
2022/09/18 04:45:10;;;;;;;2.33;1.10;;;;;;;10.42;100.00;99451.69;4903042;29;20032;-81
2022/09/18 04:47:35;;;;;;;2.25;1.13;;;;;;;10.42;100.00;99454.31;4901380;29;20123;-81
2022/09/18 04:50:02;;;;;;;1.20;1.10;;;;;;;10.47;100.00;99453.78;4906674;29;20546;-82
2022/09/18 04:52:28;;;;;;;1.95;1.30;;;;;;;10.53;100.00;99437.28;4906084;29;20044;-82
2022/09/18 04:54:53;;;;;;;1.10;1.10;;;;;;;10.51;100.00;99460.28;4905418;29;20439;-81
2022/09/18 04:57:20;;;;;;;1.23;1.13;;;;;;;10.59;100.00;99444.41;4906226;29;20501;-81
2022/09/18 04:59:45;;;;;;;2.40;1.10;;;;;;;10.41;100.00;99443.00;4906851;29;20123;-81
2022/09/18 05:02:11;;;;;;;1.15;1.10;;;;;;;10.50;100.00;99441.09;4905062;29;20024;-82
2022/09/18 05:04:36;;;;;;;1.13;1.00;;;;;;;10.54;100.00;99444.16;4905643;29;20032;-82
2022/09/18 05:07:03;;;;;;;1.92;1.20;;;;;;;10.69;100.00;99450.19;4904717;29;20485;-82
2022/09/18 05:09:30;;;;;;;2.75;1.17;;;;;;;10.37;100.00;99439.09;4906468;29;20122;-81
2022/09/18 05:11:56;;;;;;;1.48;1.30;;;;;;;10.57;100.00;99444.63;4906294;29;20493;-81
2022/09/18 05:14:21;;;;;;;2.08;1.23;;;;;;;10.55;100.00;99445.78;4903865;29;20033;-81
2022/09/18 05:16:47;;;;;;;2.05;1.17;;;;;;;10.49;100.00;99462.28;4883337;29;20076;-81
2022/09/18 05:19:12;;;;;;;1.10;1.10;;;;;;;10.59;100.00;99447.03;4903967;29;20059;-81
2022/09/18 05:21:38;;;;;;;3.30;1.50;;;;;;;10.62;100.00;99446.69;4905227;29;20060;-81
2022/09/18 05:24:03;;;;;;;2.08;1.10;;;;;;;10.39;100.00;99442.34;4880661;29;20044;-81
2022/09/18 05:26:30;;;;;;;1.10;1.10;;;;;;;10.57;100.00;99439.38;4888041;29;20029;-81
2022/09/18 05:28:56;;;;;;;2.47;1.40;;;;;;;10.52;100.00;99425.16;4890351;29;20112;-81
2022/09/18 05:31:21;;;;;;;2.40;1.25;;;;;;;10.70;100.00;99438.69;4882294;29;20111;-81
2022/09/18 05:33:47;;;;;;;3.55;1.30;;;;;;;10.45;100.00;99419.03;4887887;29;20033;-81
2022/09/18 05:36:12;;;;;;;3.42;1.33;;;;;;;10.70;100.00;99430.00;4873450;29;20390;-81
2022/09/18 05:38:38;;;;;;;1.67;1.27;;;;;;;10.78;100.00;99434.31;4889842;29;20043;-81
2022/09/18 05:41:03;;;;;;;1.50;1.10;;;;;;;10.90;100.00;99440.72;4890870;29;20479;-81
2022/09/18 05:43:29;;;;;;;1.45;1.20;;;;;;;10.86;100.00;99452.59;4873613;29;20037;-81
2022/09/18 05:45:56;;;;;;;2.08;1.30;;;;;;;10.93;100.00;99447.44;4872936;29;20037;-82
2022/09/18 05:48:21;;;;;;;2.17;1.38;;;;;;;10.85;100.00;99449.16;4892076;29;20494;-82
2022/09/18 05:50:47;;;;;;;2.97;1.20;;;;;;;10.99;100.00;99441.41;4887897;29;20033;-81
2022/09/18 05:53:14;;;;;;;5.35;1.33;;;;;;;11.00;100.00;99441.25;4888048;29;20113;-81
2022/09/18 05:55:40;;;;;;;2.83;1.20;;;;;;;10.99;100.00;99446.66;4902783;29;20051;-81
2022/09/18 05:58:10;;;;;;;1.38;1.27;;;;;;;11.01;100.00;99444.66;4887520;29;20116;-80
2022/09/18 06:00:36;;;;;;;4.22;1.10;;;;;;;10.99;100.00;99436.97;4890758;29;20053;-82
2022/09/18 06:03:04;;;;;;;2.30;1.50;;;;;;;11.06;100.00;99446.75;4892440;29;20033;-81
2022/09/18 06:05:32;;;;;;;1.52;1.30;;;;;;;10.96;100.00;99431.28;4883358;29;20032;-81
2022/09/18 06:07:58;;;;;;;2.78;1.48;;;;;;;11.19;100.00;99446.84;4885550;29;20040;-81
2022/09/18 06:10:25;;;;;;;2.63;1.50;;;;;;;11.14;100.00;99441.34;4899614;29;20036;-81
2022/09/18 06:12:59;;;;;;;4.00;1.23;;;;;;;11.07;100.00;99443.13;4876345;29;20125;-81
2022/09/18 06:15:25;;;;;;;3.63;1.38;;;;;;;11.19;100.00;99451.31;4881975;29;20032;-81
2022/09/18 06:17:51;;;;;;;1.42;1.30;;;;;;;11.13;100.00;99437.09;4883827;29;20036;-81
2022/09/18 06:20:17;;;;;;;1.50;1.40;;;;;;;11.09;100.00;99443.72;4877825;29;20037;-83
2022/09/18 06:22:43;;;;;;;2.45;1.20;;;;;;;11.08;100.00;99455.25;4889566;29;20613;-81
2022/09/18 06:25:12;;;;;;;1.67;1.20;;;;;;;10.84;100.00;99428.34;4871061;29;20036;-82
2022/09/18 06:27:37;;;;;;;2.03;1.30;;;;;;;10.97;100.00;99459.97;4874490;29;20145;-82
2022/09/18 06:30:04;;;;;;;3.47;1.40;;;;;;;11.07;100.00;99443.13;4888026;29;20059;-81
2022/09/18 06:32:30;;;;;;;1.95;1.40;;;;;;;10.97;100.00;99425.84;4867676;29;20029;-82
2022/09/18 06:34:56;;;;;;;5.70;2.67;;;;;;;11.31;100.00;99444.53;4888482;29;20043;-82
2022/09/18 06:37:21;;;;;;;2.40;1.30;;;;;;;11.48;100.00;99439.00;4887660;29;20033;-82
2022/09/18 06:39:47;;;;;;;3.85;1.40;;;;;;;11.32;100.00;99440.09;4883885;29;20048;-82
2022/09/18 06:42:12;;;;;;;2.20;1.40;;;;;;;11.24;100.00;99427.91;4884231;29;20080;-83
2022/09/18 06:44:38;;;;;;;4.57;1.40;;;;;;;11.26;100.00;99455.63;4865574;29;20104;-83
2022/09/18 06:47:04;;;;;;;1.63;1.27;;;;;;;11.20;100.00;99461.63;4881281;29;20112;-82
2022/09/18 06:49:29;;;;;;;1.42;1.30;;;;;;;11.62;100.00;99466.22;4880851;29;20025;-83
2022/09/18 06:51:55;;;;;;;1.77;1.40;;;;;;;11.64;100.00;99456.31;4900347;29;20039;-83
2022/09/18 06:54:21;;;;;;;2.08;1.50;;;;;;;11.56;100.00;99444.94;4904831;29;20024;-83
2022/09/18 06:56:46;;;;;;;4.55;1.60;;;;;;;11.62;100.00;99460.97;4889435;29;20037;-82
2022/09/18 06:59:12;;;;;;;2.00;1.27;;;;;;;11.66;100.00;99444.59;4886120;29;20025;-82
2022/09/18 07:01:38;;;;;;;2.35;1.67;;;;;;;11.87;100.00;99463.94;4873287;29;20036;-81
2022/09/18 07:04:03;;;;;;;5.47;1.38;;;;;;;11.75;100.00;99460.25;4887962;29;20044;-84
2022/09/18 07:06:29;;;;;;;3.47;1.50;;;;;;;11.94;100.00;99462.19;4870666;29;20036;-84
2022/09/18 07:08:55;;;;;;;2.15;1.48;;;;;;;12.04;100.00;99455.78;4857655;29;20042;-83
2022/09/18 07:11:20;;;;;;;2.35;1.70;;;;;;;12.40;100.00;99439.78;4888262;29;20021;-85
2022/09/18 07:13:46;;;;;;;2.45;1.83;;;;;;;12.55;100.00;99465.13;4873060;29;20394;-84
2022/09/18 07:16:12;;;;;;;1.80;1.60;;;;;;;12.66;100.00;99458.50;4889256;29;20032;-86
2022/09/18 07:18:38;;;;;;;5.63;1.38;;;;;;;12.48;100.00;99444.06;4889122;29;20118;-85
2022/09/18 07:21:04;;;;;;;7.90;1.70;;;;;;;12.50;100.00;99457.03;4901603;29;20169;-83
2022/09/18 07:23:32;;;;;;;5.25;2.25;;;;;;;12.30;100.00;99446.44;4896061;29;20132;-82
2022/09/18 07:25:59;;;;;;;1.67;1.58;;;;;;;12.61;100.00;99453.84;4920693;29;20152;-84
2022/09/18 07:28:25;;;;;;;6.45;2.00;;;;;;;12.42;100.00;99440.41;4913630;29;20498;-82
2022/09/18 07:30:51;;;;;;;6.22;1.88;;;;;;;12.29;100.00;99458.75;4911524;29;20035;-84
2022/09/18 07:33:16;;;;;;;3.40;1.63;;;;;;;12.45;100.00;99459.44;4904431;29;20379;-84
2022/09/18 07:35:42;;;;;;;5.93;1.60;;;;;;;12.50;100.00;99452.59;4904890;29;20040;-84
2022/09/18 07:38:08;;;;;;;5.80;1.77;;;;;;;12.56;100.00;99466.75;4906751;29;20036;-85
2022/09/18 07:40:34;;;;;;;5.78;1.67;;;;;;;12.49;100.00;99471.19;4904494;29;20644;-84
2022/09/18 07:43:05;;;;;;;3.38;1.80;;;;;;;12.55;100.00;99475.69;4906764;29;20036;-84
2022/09/18 07:45:34;;;;;;;2.15;1.67;;;;;;;12.80;100.00;99467.28;4900490;29;20033;-84
2022/09/18 07:48:01;;;;;;;6.28;1.80;;;;;;;12.80;100.00;99477.81;4909389;29;20043;-85
2022/09/18 07:50:27;;;;;;;3.45;1.80;;;;;;;12.64;100.00;99485.03;4909909;29;20542;-84
2022/09/18 07:52:56;;;;;;;2.92;1.70;;;;;;;12.68;100.00;99488.09;4903032;29;20119;-86
2022/09/18 07:55:25;;;;;;;5.00;2.08;;;;;;;12.54;100.00;99487.22;4890194;29;20037;-86
2022/09/18 07:57:59;;;;;;;6.30;1.70;;;;;;;12.71;100.00;99470.06;4902022;29;20028;-85
2022/09/18 08:00:27;;;;;;;3.78;1.90;;;;;;;12.48;100.00;99503.81;4891575;29;20382;-86
2022/09/18 08:03:11;;;;;;;6.13;2.20;;;;;;;12.46;100.00;99466.34;4891477;29;20508;-84
2022/09/18 08:05:38;;;;;;;5.90;2.50;;;;;;;12.50;100.00;99480.72;4889441;29;20513;-83
2022/09/18 08:08:06;;;;;;;5.32;2.60;;;;;;;12.67;100.00;99479.38;4906341;29;20067;-85
2022/09/18 08:10:40;;;;;;;7.15;2.58;;;;;;;12.96;100.00;99479.25;5096189;27;20433;-86
2022/09/18 08:13:06;;;;;;;4.07;2.50;;;;;;;13.04;100.00;99489.59;5099434;28;20478;-86
2022/09/18 08:15:33;;;;;;;4.55;2.60;;;;;;;13.01;100.00;99482.09;5096750;28;20032;-85
2022/09/18 08:18:02;;;;;;;3.25;2.55;;;;;;;13.34;100.00;99472.63;5100531;28;20024;-84
2022/09/18 08:20:28;;;;;;;3.58;2.70;;;;;;;13.39;100.00;99460.47;5097955;28;20032;-87
2022/09/18 08:22:54;;;;;;;4.55;2.80;;;;;;;13.58;100.00;99463.31;5095725;28;20036;-86
2022/09/18 08:25:20;;;;;;;3.95;2.33;;;;;;;13.86;100.00;99467.56;5099910;28;20034;-86
2022/09/18 08:27:46;;;;;;;6.28;2.15;;;;;;;14.04;100.00;99488.03;5102662;28;20032;-84
2022/09/18 08:30:13;;;;;;;6.35;2.25;;;;;;;13.98;100.00;99480.97;5100587;28;20073;-84
2022/09/18 08:32:39;;;;;;;1.98;1.77;;;;;;;14.18;100.00;99488.03;5098981;28;20031;-85
2022/09/18 08:35:11;;;;;;;5.85;2.10;;;;;;;14.20;100.00;99478.06;5097044;28;20035;-85
2022/09/18 08:37:37;;;;;;;2.85;1.80;;;;;;;14.02;100.00;99495.34;5095956;28;20070;-84
2022/09/18 08:40:04;;;;;;;2.10;1.75;;;;;;;14.36;100.00;99498.72;5095550;28;20532;-80
2022/09/18 08:42:53;;;;;;;1.73;1.50;;;;;;;14.61;100.00;99492.75;5097735;28;20393;-82
2022/09/18 08:45:34;;;;;;;1.60;1.50;;;;;;;14.75;100.00;99501.44;5095929;28;20035;-81
2022/09/18 08:48:10;;;;;;;1.80;1.60;;;;;;;14.76;100.00;99507.56;5098674;28;20059;-84
2022/09/18 08:50:41;;;;;;;4.72;1.48;;;;;;;14.66;100.00;99500.84;5096572;28;20119;-83
2022/09/18 08:53:39;;;;;;;2.50;1.60;;;;;;;15.07;100.00;99508.59;5095415;28;20032;-79
2022/09/18 08:56:14;;;;;;;1.73;1.60;;;;;;;14.82;100.00;99489.00;5092859;28;20040;-79
2022/09/18 08:59:03;;;;;;;3.80;1.65;;;;;;;14.68;100.00;99485.59;5096926;28;20351;-82
2022/09/18 09:01:41;;;;;;;3.03;1.40;;;;;;;14.57;100.00;99488.91;5096738;28;20081;-80
2022/09/18 09:04:16;;;;;;;2.90;1.38;;;;;;;15.06;100.00;99473.44;5093901;28;20031;-83
2022/09/18 09:06:53;;;;;;;2.55;1.60;;;;;;;15.48;100.00;99494.09;5096292;28;20024;-84
2022/09/18 09:09:41;;;;;;;2.60;1.70;;;;;;;15.28;100.00;99495.03;5099968;28;20062;-84
2022/09/18 09:12:31;;;;;;;5.55;1.70;;;;;;;15.56;100.00;99499.13;5097967;28;20061;-84
2022/09/18 09:15:18;;;;;;;1.77;1.65;;;;;;;15.55;100.00;99508.09;5103746;28;20023;-82
2022/09/18 09:18:12;;;;;;;3.95;1.80;;;;;;;15.93;100.00;99495.78;5095872;28;20036;-85
2022/09/18 09:20:49;;;;;;;5.90;1.70;;;;;;;15.79;100.00;99505.66;5081773;28;20028;-84
2022/09/18 09:23:27;;;;;;;3.47;1.83;;;;;;;16.23;100.00;99497.72;5080724;28;20028;-84
2022/09/18 09:26:10;;;;;;;2.67;1.60;;;;;;;16.48;100.00;99490.69;5082203;28;20035;-84
2022/09/18 09:29:00;;;;;;;4.05;1.85;;;;;;;16.44;100.00;99500.97;5082511;28;20028;-84
2022/09/18 09:31:33;;;;;;;1.55;1.40;;;;;;;16.13;100.00;99495.59;5079385;28;20036;-84
2022/09/18 09:34:05;;;;;;;1.52;1.42;;;;;;;15.93;100.00;99481.75;5080822;28;20123;-86
2022/09/18 09:36:33;;;;;;;2.25;1.55;;;;;;;15.89;100.00;99485.81;5084828;28;20067;-85
2022/09/18 09:39:27;;;;;;;2.55;1.73;;;;;;;16.05;100.00;99500.34;5081418;28;20462;-84
2022/09/18 09:41:57;;;;;;;3.65;1.80;;;;;;;15.89;100.00;99507.00;5083428;28;20074;-83
2022/09/18 09:44:25;;;;;;;4.60;1.80;;;;;;;15.99;100.00;99497.53;5085132;28;20074;-83
2022/09/18 09:47:19;;;;;;;4.45;1.50;;;;;;;16.41;100.00;99488.94;5082598;28;20387;-85
2022/09/18 09:49:58;;;;;;;2.20;1.50;;;;;;;16.40;100.00;99476.72;5085661;28;20035;-84
2022/09/18 09:52:27;;;;;;;2.65;1.67;;;;;;;16.30;100.00;99502.91;5079938;28;20056;-83
2022/09/18 09:55:08;;;;;;;3.08;1.55;;;;;;;16.67;100.00;99475.59;5084912;28;20031;-84
2022/09/18 09:58:09;;;;;;;2.95;1.52;;;;;;;16.61;100.00;99485.25;5083264;28;20032;-84
2022/09/18 10:01:05;;;;;;;1.70;1.60;;;;;;;16.76;100.00;99490.16;5083105;28;20116;-84
2022/09/18 10:04:03;;;;;;;4.85;1.50;;;;;;;16.49;100.00;99487.03;5075724;28;20135;-84
2022/09/18 10:06:46;;;;;;;5.85;1.60;;;;;;;16.34;100.00;99498.81;5067550;28;20032;-83
2022/09/18 10:09:45;;;;;;;1.75;1.65;;;;;;;16.60;100.00;99475.69;5085045;28;20051;-85
2022/09/18 10:12:40;;;;;;;1.50;1.40;;;;;;;16.73;100.00;99480.00;5085352;28;20039;-84
2022/09/18 10:15:29;;;;;;;1.55;1.45;;;;;;;16.76;100.00;99484.06;5080878;28;20043;-84
2022/09/18 10:17:58;;;;;;;1.60;1.50;;;;;;;17.11;100.00;99480.75;5085801;28;20028;-84
2022/09/18 10:20:27;;;;;;;3.63;1.75;;;;;;;16.90;100.00;99474.06;5082803;28;20145;-84
2022/09/18 10:22:57;;;;;;;1.50;1.40;;;;;;;17.08;100.00;99481.19;5080205;28;20032;-85
2022/09/18 10:25:34;;;;;;;1.50;1.40;;;;;;;17.35;100.00;99489.53;5078623;28;20107;-84
2022/09/18 10:28:00;;;;;;;2.15;1.40;;;;;;;17.31;100.00;99474.34;5075987;28;20032;-85
2022/09/18 10:30:28;;;;;;;3.03;1.58;;;;;;;17.45;100.00;99481.03;5081095;28;20029;-84
2022/09/18 10:32:53;;;;;;;3.30;1.50;;;;;;;17.44;100.00;99511.25;5081718;28;20040;-84
2022/09/18 10:35:45;;;;;;;1.67;1.58;;;;;;;17.61;100.00;99484.88;5084194;28;20028;-84
2022/09/18 10:38:28;;;;;;;2.30;1.70;;;;;;;17.20;100.00;99503.25;5080236;28;20067;-84
2022/09/18 10:40:54;;;;;;;;;;;;;;;17.34;100.00;99489.78;5081516;28;20498;-84
2022/09/18 10:43:20;;;;;;;1.60;1.50;;;;;;;17.08;100.00;99473.22;5079242;28;20049;-83
2022/09/18 10:45:55;;;;;;;1.98;1.48;;;;;;;16.82;100.00;99472.53;5079842;28;20130;-85
2022/09/18 10:48:24;;;;;;;1.80;1.65;;;;;;;17.21;100.00;99486.28;5082594;28;20414;-85
2022/09/18 10:50:54;;;;;;;1.60;1.50;;;;;;;17.18;100.00;99497.38;5079557;28;20062;-84
2022/09/18 10:53:23;;;;;;;2.50;1.65;;;;;;;17.05;100.00;99478.97;5078245;28;20035;-83
2022/09/18 10:55:49;;;;;;;1.60;1.50;;;;;;;17.18;100.00;99491.25;5079625;28;20052;-84
2022/09/18 10:58:16;;;;;;;1.77;1.40;;;;;;;17.10;100.00;99492.41;5082749;28;20028;-84
2022/09/18 11:00:47;;;;;;;2.13;1.65;;;;;;;16.72;100.00;99504.09;5065237;28;20036;-84
2022/09/18 11:03:21;;;;;;;1.70;1.60;;;;;;;17.23;100.00;99500.13;5078559;28;20101;-85
2022/09/18 11:05:51;;;;;;;1.65;1.50;;;;;;;17.37;100.00;99497.28;5084388;28;20054;-85
2022/09/18 11:08:21;;;;;;;1.70;1.50;;;;;;;17.43;100.00;99501.69;5080576;28;20389;-84
2022/09/18 11:10:49;;;;;;;8.32;1.70;;;;;;;17.38;100.00;99509.53;5082455;28;20361;-84
2022/09/18 11:13:27;;;;;;;1.60;1.50;;;;;;;17.06;100.00;99484.06;5080986;28;20085;-85
2022/09/18 11:15:56;;;;;;;1.98;1.58;;;;;;;17.41;100.00;99490.50;5082104;28;20045;-84
2022/09/18 11:18:23;;;;;;;1.70;1.60;;;;;;;17.41;100.00;99515.19;5081791;28;20043;-83
2022/09/18 11:20:50;;;;;;;2.67;1.63;;;;;;;17.19;100.00;99509.59;5082531;28;20047;-84
2022/09/18 11:23:31;;;;;;;1.70;1.60;;;;;;;17.38;100.00;99509.53;5080966;28;20024;-84
2022/09/18 11:26:16;;;;;;;1.70;1.60;;;;;;;17.31;100.00;99501.66;5085796;28;20478;-84
2022/09/18 11:28:56;;;;;;;1.80;1.70;;;;;;;17.62;100.00;99507.72;5080618;28;20036;-84
2022/09/18 11:31:22;;;;;;;1.60;1.50;;;;;;;17.38;100.00;99502.34;5064286;28;20473;-84
2022/09/18 11:33:52;;;;;;;1.60;1.50;;;;;;;17.21;100.00;99509.38;5081834;28;20032;-84
2022/09/18 11:36:29;;;;;;;1.60;1.50;;;;;;;17.37;100.00;99515.88;5080613;28;20036;-84
2022/09/18 11:38:57;;;;;;;1.92;1.83;;;;;;;17.40;100.00;99507.44;5081940;28;20492;-83
2022/09/18 11:41:25;;;;;;;2.25;1.50;;;;;;;17.35;100.00;99507.34;5084080;28;20162;-85
2022/09/18 11:44:21;;;;;;;2.03;1.70;;;;;;;17.47;100.00;99507.34;5081483;28;20111;-85